Time;durP1;ratioP1;P1;durP2;ratioP2;P2;SDS_P1;SDS_P2;PMS_P1;PMS_P2;Temp;Humidity;BMP_temperature;BMP_pressure;BME280_temperature;BME280_humidity;BME280_pressure;Samples;Min_cycle;Max_cycle;Signal;HPM_P1;HPM_P2
2023/06/06 00:00:28;;;;;;;;;;;;;;;18.02;47.94;96694.06;4992523;28;20282;-86
2023/06/06 00:03:02;;;;;;;;;;;;;;;18.02;47.74;96699.34;4993809;28;20176;-89
2023/06/06 00:05:36;;;;;;;;;;;;;;;17.99;47.88;96696.34;4996866;28;19922;-92
2023/06/06 00:08:05;;;;;;;;;;;;;;;17.94;47.84;96694.38;4997406;28;19922;-90
2023/06/06 00:10:34;;;;;;;;;;;;;;;17.85;47.99;96695.72;4998095;28;19928;-90
2023/06/06 00:13:08;;;;;;;;;;;;;;;17.71;48.04;96698.53;4995003;28;19922;-91
2023/06/06 00:15:40;;;;;;;;;;;;;;;17.58;48.36;96690.81;4994232;28;19921;-89
2023/06/06 00:18:16;;;;;;;;;;;;;;;17.50;48.58;96693.75;4993983;28;19921;-90
2023/06/06 00:20:48;;;;;;;;;;;;;;;17.42;48.67;96686.94;4993664;28;19945;-90
2023/06/06 00:23:16;;;;;;;;;;;;;;;17.39;48.71;96686.59;4993904;28;20374;-87
2023/06/06 00:25:44;;;;;;;;;;;;;;;17.38;48.81;96692.88;4993865;28;19966;-90
2023/06/06 00:28:12;;;;;;;;;;;;;;;17.35;48.97;96693.34;4994144;28;19926;-91
2023/06/06 00:30:43;;;;;;;;;;;;;;;17.30;49.09;96688.72;4994619;28;19922;-89
2023/06/06 00:33:13;;;;;;;;;;;;;;;17.24;49.04;96690.41;4992641;28;19922;-87
2023/06/06 00:35:41;;;;;;;;;;;;;;;17.21;49.22;96693.50;4991539;28;19929;-89
2023/06/06 00:38:14;;;;;;;;;;;;;;;17.19;49.40;96689.47;4992131;28;19990;-89
2023/06/06 00:40:43;;;;;;;;;;;;;;;17.15;49.44;96686.47;4991716;28;19989;-88
2023/06/06 00:43:14;;;;;;;;;;;;;;;17.09;49.58;96688.16;4992081;28;19945;-88
2023/06/06 00:45:42;;;;;;;;;;;;;;;17.06;49.63;96690.44;4993085;28;19922;-87
2023/06/06 00:48:11;;;;;;;;;;;;;;;16.99;49.91;96687.06;4991026;28;19922;-89
2023/06/06 00:50:47;;;;;;;;;;;;;;;16.94;50.01;96686.91;4991081;28;20215;-85
2023/06/06 00:53:21;;;;;;;;;;;;;;;16.87;50.13;96692.25;4996112;28;19982;-89
2023/06/06 00:55:49;;;;;;;;;;;;;;;16.82;51.13;96687.66;4995038;28;19926;-91
2023/06/06 00:58:18;;;;;;;;;;;;;;;16.79;52.09;96692.50;4993873;28;19906;-90
2023/06/06 01:00:50;;;;;;;;;;;;;;;16.78;51.34;96690.91;4992918;28;19925;-90
2023/06/06 01:03:20;;;;;;;;;;;;;;;16.73;51.76;96693.41;4993794;28;19922;-91
2023/06/06 01:05:49;;;;;;;;;;;;;;;16.66;51.74;96698.72;4993880;28;19922;-88
2023/06/06 01:08:18;;;;;;;;;;;;;;;16.55;51.60;96695.00;4993994;28;19922;-88
2023/06/06 01:10:52;;;;;;;;;;;;;;;16.47;51.81;96697.91;4993826;28;19922;-88
2023/06/06 01:13:33;;;;;;;;;;;;;;;16.39;52.16;96698.97;4993555;28;20322;-87
2023/06/06 01:16:02;;;;;;;;;;;;;;;16.34;52.66;96698.81;4992905;28;19953;-88
2023/06/06 01:18:33;;;;;;;;;;;;;;;16.26;52.88;96699.06;4991673;28;19986;-88
2023/06/06 01:21:03;;;;;;;;;;;;;;;16.22;52.50;96705.78;4992854;28;19922;-88
2023/06/06 01:23:32;;;;;;;;;;;;;;;16.15;52.77;96702.41;4994689;28;19993;-91
2023/06/06 01:26:05;;;;;;;;;;;;;;;16.08;52.58;96704.28;4994133;28;21271;-89
2023/06/06 01:31:28;;;;;;;;;;;;;;;15.91;52.71;96702.16;4989289;28;19926;-86
2023/06/06 01:34:04;;;;;;;;;;;;;;;15.83;52.49;96700.63;4992522;28;19945;-89
2023/06/06 01:36:43;;;;;;;;;;;;;;;15.76;52.42;96694.56;4991924;28;20413;-86
2023/06/06 01:39:25;;;;;;;;;;;;;;;15.71;52.77;96701.47;4992551;28;20489;-88
2023/06/06 01:42:05;;;;;;;;;;;;;;;15.63;52.93;96698.09;4991686;28;19922;-90
2023/06/06 01:44:45;;;;;;;;;;;;;;;15.57;53.23;96696.28;4990956;28;19949;-85
2023/06/06 01:47:18;;;;;;;;;;;;;;;15.53;53.84;96695.09;4991921;28;19942;-90
2023/06/06 01:49:47;;;;;;;;;;;;;;;15.51;53.73;96697.13;4992474;28;20448;-86
2023/06/06 01:52:17;;;;;;;;;;;;;;;15.47;53.47;96690.66;4992080;28;19929;-90
2023/06/06 01:54:55;;;;;;;;;;;;;;;15.41;53.57;96696.75;4995188;28;19986;-87
2023/06/06 01:57:34;;;;;;;;;;;;;;;15.34;53.70;96690.75;4996243;28;19913;-90
2023/06/06 02:00:08;;;;;;;;;;;;;;;15.28;53.62;96697.63;4994442;28;19922;-90
2023/06/06 02:02:39;;;;;;;;;;;;;;;15.21;53.71;96705.53;4994206;28;20334;-91
2023/06/06 02:05:08;;;;;;;;;;;;;;;15.18;53.74;96705.97;4992338;28;19961;-88
2023/06/06 02:37:11;;;;;;;;;;;;;;;14.56;54.87;96715.19;5011051;28;19928;-90
2023/06/06 02:40:08;;;;;;;;;;;;;;;14.46;55.27;96712.97;5011042;28;19922;-89
2023/06/06 03:17:51;;;;;;;;;;;;;;;13.95;57.46;96724.88;5617327;23;19930;-77
2023/06/06 03:20:20;;;;;;;;;;;;;;;13.96;56.41;96730.91;4976343;28;19922;-77
2023/06/06 03:22:47;;;;;;;;;;;;;;;13.95;56.68;96727.50;4976154;28;19921;-77
2023/06/06 03:25:15;;;;;;;;;;;;;;;13.95;56.01;96724.88;4976283;28;19996;-77
2023/06/06 03:27:43;;;;;;;;;;;;;;;13.94;56.53;96733.72;4976706;28;19928;-77
2023/06/06 03:30:11;;;;;;;;;;;;;;;13.92;56.38;96735.75;4976834;28;19921;-77
2023/06/06 03:32:38;;;;;;;;;;;;;;;13.90;56.39;96743.00;4976350;28;19922;-77
2023/06/06 03:35:08;;;;;;;;;;;;;;;13.90;56.13;96736.94;4976307;28;19921;-77
2023/06/06 03:37:35;;;;;;;;;;;;;;;13.87;56.23;96735.53;4976237;28;19922;-77
2023/06/06 03:40:03;;;;;;;;;;;;;;;13.83;56.12;96741.38;4976438;28;19967;-77
2023/06/06 03:42:30;;;;;;;;;;;;;;;13.78;56.53;96739.34;4976174;28;19922;-77
2023/06/06 03:44:58;;;;;;;;;;;;;;;13.81;57.31;96733.72;4975795;28;20346;-77
2023/06/06 03:47:25;;;;;;;;;;;;;;;13.83;57.88;96742.19;4975890;28;20378;-76
2023/06/06 03:49:53;;;;;;;;;;;;;;;13.90;57.02;96736.94;4976086;28;19922;-77
2023/06/06 03:52:22;;;;;;;;;;;;;;;14.00;56.81;96743.44;4975784;28;19922;-77
2023/06/06 03:54:49;;;;;;;;;;;;;;;14.12;56.70;96745.44;4975999;28;19925;-77
2023/06/06 03:57:18;;;;;;;;;;;;;;;14.17;56.07;96748.31;4975724;28;19992;-77
2023/06/06 03:59:46;;;;;;;;;;;;;;;14.24;56.61;96743.06;4974915;28;19929;-77
2023/06/06 04:02:13;;;;;;;;;;;;;;;14.33;55.79;96747.91;4975735;28;19922;-77
2023/06/06 04:04:41;;;;;;;;;;;;;;;14.33;56.62;96747.91;4975330;28;19925;-77
2023/06/06 04:07:09;;;;;;;;;;;;;;;14.33;57.61;96747.91;4975206;28;20005;-77
2023/06/06 04:09:39;;;;;;;;;;;;;;;14.36;56.29;96747.47;4975797;28;19957;-77
2023/06/06 04:12:08;;;;;;;;;;;;;;;14.38;56.33;96749.91;4975932;28;19922;-77
2023/06/06 04:14:36;;;;;;;;;;;;;;;14.41;55.28;96752.94;4975473;28;19922;-79
2023/06/06 04:17:15;;;;;;;;;;;;;;;14.37;56.12;96743.88;4987876;23;19918;-83
2023/06/06 04:19:45;;;;;;;;;;;;;;;14.32;56.17;96742.84;5031633;23;19922;-82
2023/06/06 04:22:12;;;;;;;;;;;;;;;14.28;56.06;96750.31;4972936;28;19926;-80
2023/06/06 04:24:41;;;;;;;;;;;;;;;14.26;56.03;96752.34;4983439;28;19922;-82
2023/06/06 04:27:09;;;;;;;;;;;;;;;14.24;57.11;96759.59;4989349;28;19922;-83
2023/06/06 04:29:37;;;;;;;;;;;;;;;14.26;56.83;96751.53;4990691;28;19922;-80
2023/06/06 04:32:05;;;;;;;;;;;;;;;14.27;56.61;96755.75;4986861;28;20378;-80
2023/06/06 04:34:35;;;;;;;;;;;;;;;14.26;56.17;96749.72;4983748;28;19933;-81
2023/06/06 04:37:03;;;;;;;;;;;;;;;14.25;57.37;96750.72;4988669;28;19922;-80
2023/06/06 04:39:32;;;;;;;;;;;;;;;14.25;56.66;96760.41;4982764;28;19940;-79
2023/06/06 04:42:01;;;;;;;;;;;;;;;14.27;57.05;96748.69;4977241;28;19922;-80
2023/06/06 04:44:29;;;;;;;;;;;;;;;14.30;56.51;96737.81;4968594;28;19922;-80
2023/06/06 04:47:00;;;;;;;;;;;;;;;14.33;56.64;96740.03;4975955;28;19929;-79
2023/06/06 04:49:28;;;;;;;;;;;;;;;14.37;56.60;96737.81;4975000;28;19922;-80
2023/06/06 04:51:56;;;;;;;;;;;;;;;14.43;56.88;96740.44;4965434;28;20278;-80
2023/06/06 04:54:24;;;;;;;;;;;;;;;14.47;56.47;96745.25;4975520;28;20006;-79
2023/06/06 04:56:52;;;;;;;;;;;;;;;14.47;56.55;96747.88;4974909;28;20322;-79
2023/06/06 04:59:22;;;;;;;;;;;;;;;14.42;56.36;96746.69;4975107;28;20437;-79
2023/06/06 05:01:51;;;;;;;;;;;;;;;14.40;56.68;96742.66;4972067;28;19923;-80
2023/06/06 05:04:18;;;;;;;;;;;;;;;14.40;58.97;96743.44;4976287;28;19972;-80
2023/06/06 05:06:47;;;;;;;;;;;;;;;14.49;58.19;96751.13;4977290;28;20309;-80
2023/06/06 05:09:15;;;;;;;;;;;;;;;14.58;56.07;96749.94;4983288;28;19976;-82
2023/06/06 05:11:45;;;;;;;;;;;;;;;14.65;56.62;96756.00;4984713;28;19969;-80
2023/06/06 05:14:12;;;;;;;;;;;;;;;14.71;57.67;96749.13;4978761;28;20431;-83
2023/06/06 05:16:46;;;;;;;;;;;;;;;14.77;57.23;96749.09;4993716;28;19937;-86
2023/06/06 05:19:15;;;;;;;;;;;;;;;14.83;56.29;96747.50;4992269;28;20267;-82
2023/06/06 05:21:43;;;;;;;;;;;;;;;14.86;57.29;96747.06;4987271;28;19945;-80
2023/06/06 05:24:10;;;;;;;;;;;;;;;14.89;58.07;96754.56;4972765;28;19989;-80
2023/06/06 05:26:38;;;;;;;;;;;;;;;14.94;58.68;96749.47;4976051;28;19922;-76
2023/06/06 05:29:05;;;;;;;;;;;;;;;15.05;57.38;96753.31;4962861;28;20371;-76
2023/06/06 05:31:33;;;;;;;;;;;;;;;15.10;56.79;96750.84;4969725;28;19928;-76
2023/06/06 05:34:03;;;;;;;;;;;;;;;15.14;56.39;96752.06;4974264;28;19965;-76
2023/06/06 05:36:30;;;;;;;;;;;;;;;15.15;56.49;96755.47;4972609;28;19953;-77
2023/06/06 05:38:59;;;;;;;;;;;;;;;15.16;56.62;96763.16;4972486;28;19922;-77
2023/06/06 05:41:26;;;;;;;;;;;;;;;15.15;56.72;96755.47;4972744;28;19992;-77
2023/06/06 05:43:54;;;;;;;;;;;;;;;15.15;56.83;96756.31;4972212;28;19928;-76
2023/06/06 05:46:21;;;;;;;;;;;;;;;15.18;56.17;96760.34;4973764;28;19957;-78
2023/06/06 05:48:49;;;;;;;;;;;;;;;15.19;56.66;96756.69;4972961;28;20012;-77
2023/06/06 05:51:17;;;;;;;;;;;;;;;15.23;56.19;96763.94;4974055;28;20474;-77
2023/06/06 05:53:45;;;;;;;;;;;;;;;15.30;57.15;96765.75;4974810;28;19922;-76
2023/06/06 05:56:14;;;;;;;;;;;;;;;15.36;56.57;96762.31;4974920;28;19922;-77
2023/06/06 05:58:42;;;;;;;;;;;;;;;15.42;56.17;96761.47;4973708;28;19993;-77
2023/06/06 06:01:11;;;;;;;;;;;;;;;15.51;56.35;96760.22;4974546;28;19970;-77
2023/06/06 06:03:40;;;;;;;;;;;;;;;15.57;55.83;96754.13;4974409;28;19926;-77
2023/06/06 06:06:08;;;;;;;;;;;;;;;15.65;55.30;96761.78;4974013;28;20008;-77
2023/06/06 06:08:37;;;;;;;;;;;;;;;15.75;55.63;96761.34;4974120;28;19922;-77
2023/06/06 06:11:07;;;;;;;;;;;;;;;15.84;55.68;96756.66;4973883;28;19976;-78
2023/06/06 06:13:36;;;;;;;;;;;;;;;15.92;55.45;96761.66;4973801;28;19926;-77
2023/06/06 06:16:04;;;;;;;;;;;;;;;16.01;55.32;96754.34;4973275;28;19939;-77
2023/06/06 06:18:33;;;;;;;;;;;;;;;16.09;55.37;96761.16;4973397;28;19926;-76
2023/06/06 06:21:01;;;;;;;;;;;;;;;16.14;55.29;96769.25;4973356;28;19945;-77
2023/06/06 06:23:28;;;;;;;;;;;;;;;16.20;54.81;96763.09;4976862;28;19922;-76
2023/06/06 06:25:57;;;;;;;;;;;;;;;16.25;54.95;96765.91;4976991;28;19922;-77
2023/06/06 06:28:25;;;;;;;;;;;;;;;16.33;54.69;96764.84;4977039;28;19929;-77
2023/06/06 06:30:53;;;;;;;;;;;;;;;16.39;54.81;96763.97;4980835;28;19964;-77
2023/06/06 06:33:22;;;;;;;;;;;;;;;16.45;54.69;96769.19;4989663;28;19965;-77
2023/06/06 06:35:50;;;;;;;;;;;;;;;16.52;54.30;96776.25;4985763;28;19926;-77
2023/06/06 06:38:17;;;;;;;;;;;;;;;16.59;54.29;96772.53;4986123;28;20112;-77
2023/06/06 06:40:44;;;;;;;;;;;;;;;16.67;54.56;96776.72;4977594;28;19976;-77
2023/06/06 06:43:14;;;;;;;;;;;;;;;16.74;54.02;96780.09;4977404;28;19969;-77
2023/06/06 06:45:42;;;;;;;;;;;;;;;16.80;54.38;96784.53;4976589;28;19922;-77
2023/06/06 06:48:09;;;;;;;;;;;;;;;16.85;54.16;96782.03;4976942;28;19926;-77
2023/06/06 06:50:37;;;;;;;;;;;;;;;16.93;53.95;96788.09;4976845;28;19968;-77
2023/06/06 06:53:06;;;;;;;;;;;;;;;17.00;53.54;96783.53;4976512;28;19973;-77
2023/06/06 06:55:34;;;;;;;;;;;;;;;17.09;53.19;96782.22;4976165;28;19988;-77
2023/06/06 06:58:02;;;;;;;;;;;;;;;17.18;52.66;96780.91;4976583;28;19930;-76
2023/06/06 07:00:31;;;;;;;;;;;;;;;17.25;52.44;96781.66;4976567;28;19922;-77
2023/06/06 07:02:59;;;;;;;;;;;;;;;17.34;52.39;96784.00;4976959;28;20377;-77
2023/06/06 07:05:27;;;;;;;;;;;;;;;17.41;51.93;96790.81;4976698;28;19948;-77
2023/06/06 07:07:55;;;;;;;;;;;;;;;17.51;51.87;96790.28;4976857;28;20005;-77
2023/06/06 07:10:23;;;;;;;;;;;;;;;17.60;52.16;96794.25;4976664;28;19929;-77
2023/06/06 07:12:51;;;;;;;;;;;;;;;17.67;51.87;96784.44;4976789;28;19993;-77
2023/06/06 07:15:19;;;;;;;;;;;;;;;17.72;51.55;96781.13;4976540;28;19953;-77
2023/06/06 07:17:49;;;;;;;;;;;;;;;17.77;51.07;96783.09;4977044;28;19980;-77
2023/06/06 07:20:18;;;;;;;;;;;;;;;17.83;51.51;96782.22;4976279;28;19922;-77
2023/06/06 07:22:45;;;;;;;;;;;;;;;17.89;51.13;96778.69;4976197;28;19922;-77
2023/06/06 07:25:13;;;;;;;;;;;;;;;17.97;50.96;96786.28;4976079;28;19922;-77
2023/06/06 07:27:41;;;;;;;;;;;;;;;18.03;50.47;96782.75;4975796;28;19926;-74
2023/06/06 07:30:12;;;;;;;;;;;;;;;18.10;50.11;96783.50;4975964;28;19922;-74
2023/06/06 07:32:42;;;;;;;;;;;;;;;18.19;49.85;96781.34;4976097;28;19929;-77
2023/06/06 07:35:12;;;;;;;;;;;;;;;18.29;50.24;96786.06;4975697;28;20345;-74
2023/06/06 07:37:39;;;;;;;;;;;;;;;18.41;49.03;96776.31;4975898;28;20049;-75
2023/06/06 07:40:08;;;;;;;;;;;;;;;18.50;48.43;96782.09;4975762;28;20388;-75
2023/06/06 07:42:36;;;;;;;;;;;;;;;18.58;48.31;96783.56;4975987;28;19930;-75
2023/06/06 07:45:04;;;;;;;;;;;;;;;18.65;48.25;96779.81;4975422;28;19929;-75
2023/06/06 07:47:31;;;;;;;;;;;;;;;18.72;48.06;96779.69;4975614;28;20394;-74
2023/06/06 07:49:59;;;;;;;;;;;;;;;18.79;48.18;96772.47;4975475;28;19928;-74
2023/06/06 07:52:28;;;;;;;;;;;;;;;18.88;48.08;96768.44;4975432;28;20013;-75
2023/06/06 07:54:55;;;;;;;;;;;;;;;18.99;47.67;96773.97;4975506;28;19969;-73
2023/06/06 07:57:25;;;;;;;;;;;;;;;19.06;47.67;96769.38;4975554;28;19977;-75
2023/06/06 07:59:54;;;;;;;;;;;;;;;19.15;47.40;96773.25;4975365;28;19957;-75
2023/06/06 08:02:21;;;;;;;;;;;;;;;19.24;47.48;96765.78;4975317;28;19922;-75
2023/06/06 08:04:49;;;;;;;;;;;;;;;19.33;47.26;96767.84;4975008;28;19977;-75
2023/06/06 08:07:18;;;;;;;;;;;;;;;19.43;46.92;96764.59;4975264;28;19922;-75
2023/06/06 08:09:47;;;;;;;;;;;;;;;19.50;46.79;96767.94;4975199;28;19968;-75
2023/06/06 08:12:14;;;;;;;;;;;;;;;19.56;46.32;96768.81;4974955;28;19937;-75
2023/06/06 08:14:42;;;;;;;;;;;;;;;19.63;45.79;96768.69;4975053;28;19972;-75
2023/06/06 08:17:10;;;;;;;;;;;;;;;19.69;45.88;96771.22;4975045;28;19976;-75
2023/06/06 08:19:37;;;;;;;;;;;;;;;19.75;45.56;96772.13;4975628;28;19922;-75
2023/06/06 08:22:06;;;;;;;;;;;;;;;19.80;45.44;96763.47;4975015;28;19964;-75
2023/06/06 08:24:33;;;;;;;;;;;;;;;19.89;45.38;96775.28;4974948;28;19922;-75
2023/06/06 08:27:03;;;;;;;;;;;;;;;20.00;45.25;96771.78;4974814;28;19929;-74
2023/06/06 08:29:30;;;;;;;;;;;;;;;20.11;45.10;96770.91;4975205;28;19925;-76
2023/06/06 08:31:57;;;;;;;;;;;;;;;20.21;44.94;96766.88;4975876;28;20345;-76
2023/06/06 08:34:26;;;;;;;;;;;;;;;20.29;44.93;96764.63;4975127;28;20362;-75
2023/06/06 08:37:01;;;;;;;;;;;;;;;20.37;44.31;96769.50;4976539;28;19922;-75
2023/06/06 08:39:31;;;;;;;;;;;;;;;20.43;44.62;96770.41;4976224;28;19969;-76
2023/06/06 08:41:59;;;;;;;;;;;;;;;20.47;44.90;96768.88;4974327;28;20421;-76
2023/06/06 08:44:28;;;;;;;;;;;;;;;20.56;44.38;96772.72;4974226;28;19922;-76
2023/06/06 08:46:57;;;;;;;;;;;;;;;20.62;44.63;96765.72;4974237;28;19929;-75
2023/06/06 08:49:25;;;;;;;;;;;;;;;20.70;44.40;96773.22;4974464;28;20369;-76
2023/06/06 08:51:53;;;;;;;;;;;;;;;20.77;44.19;96776.53;4974109;28;20012;-75
2023/06/06 08:54:21;;;;;;;;;;;;;;;20.83;43.49;96760.69;4974224;28;19976;-76
2023/06/06 08:56:48;;;;;;;;;;;;;;;20.86;43.35;96755.72;4974383;28;19933;-76
2023/06/06 08:59:16;;;;;;;;;;;;;;;20.91;43.63;96761.09;4974174;28;19928;-76
2023/06/06 09:01:48;;;;;;;;;;;;;;;20.97;43.62;96770.72;4973931;28;20012;-76
2023/06/06 09:04:16;;;;;;;;;;;;;;;21.06;43.35;96760.50;4973861;28;19926;-75
2023/06/06 09:06:45;;;;;;;;;;;;;;;21.13;43.42;96760.34;4973744;28;19921;-76
2023/06/06 09:09:13;;;;;;;;;;;;;;;21.17;43.53;96758.81;4973812;28;19926;-76
2023/06/06 09:11:40;;;;;;;;;;;;;;;21.22;43.46;96756.19;4973723;28;20395;-75
2023/06/06 09:14:08;;;;;;;;;;;;;;;21.24;43.69;96756.75;4973708;28;19922;-75
2023/06/06 09:16:36;;;;;;;;;;;;;;;21.35;43.66;96761.13;4973649;28;19980;-76
2023/06/06 09:19:06;;;;;;;;;;;;;;;21.43;43.02;96765.25;4973794;28;19969;-77
2023/06/06 09:21:34;;;;;;;;;;;;;;;21.48;43.27;96756.56;4973566;28;20385;-76
2023/06/06 09:24:02;;;;;;;;;;;;;;;21.56;43.41;96748.16;4973450;28;19922;-76
2023/06/06 09:26:30;;;;;;;;;;;;;;;21.66;43.46;96750.91;4973539;28;20397;-76
2023/06/06 09:29:06;;;;;;;;;;;;;;;21.72;42.17;96752.59;4973628;28;19922;-76
2023/06/06 09:31:37;;;;;;;;;;;;;;;21.77;42.23;96757.94;4973445;28;19929;-76
2023/06/06 09:34:08;;;;;;;;;;;;;;;21.83;42.17;96758.00;4973489;28;19961;-77
2023/06/06 09:36:38;;;;;;;;;;;;;;;21.89;41.94;96752.50;4973721;28;19925;-76
2023/06/06 09:39:09;;;;;;;;;;;;;;;21.94;42.05;96757.06;4973334;28;19925;-76
2023/06/06 09:41:40;;;;;;;;;;;;;;;21.97;41.60;96754.72;4973265;28;19922;-77
2023/06/06 09:44:19;;;;;;;;;;;;;;;21.98;41.85;96755.50;4973415;28;19929;-77
2023/06/06 09:46:47;;;;;;;;;;;;;;;22.04;41.77;96754.50;4973073;28;19922;-77
2023/06/06 09:49:15;;;;;;;;;;;;;;;22.09;41.17;96757.22;4973608;28;19922;-77
2023/06/06 09:51:43;;;;;;;;;;;;;;;22.13;41.30;96753.00;4973323;28;19926;-77
2023/06/06 09:54:11;;;;;;;;;;;;;;;22.13;41.11;96747.69;4973271;28;19997;-77
2023/06/06 09:56:42;;;;;;;;;;;;;;;22.12;40.82;96754.03;4973857;28;20008;-77
2023/06/06 09:59:11;;;;;;;;;;;;;;;22.16;40.83;96743.72;4977271;28;19929;-77
2023/06/06 10:01:42;;;;;;;;;;;;;;;22.21;41.03;96744.56;4977356;28;19922;-77
2023/06/06 10:04:10;;;;;;;;;;;;;;;22.28;39.67;96755.03;4977392;28;19929;-77
2023/06/06 10:06:43;;;;;;;;;;;;;;;22.33;39.30;96757.72;4977400;28;19988;-77
2023/06/06 10:09:11;;;;;;;;;;;;;;;22.40;40.04;96744.22;4976985;28;20386;-77
2023/06/06 10:11:39;;;;;;;;;;;;;;;22.49;39.92;96749.88;4976790;28;19922;-76
2023/06/06 10:14:08;;;;;;;;;;;;;;;22.56;39.46;96740.59;4977196;28;19922;-76
2023/06/06 10:16:36;;;;;;;;;;;;;;;22.65;39.36;96738.28;4976995;28;19925;-77
2023/06/06 10:19:04;;;;;;;;;;;;;;;22.73;40.01;96742.31;4976958;28;19922;-77
2023/06/06 10:21:32;;;;;;;;;;;;;;;22.78;39.29;96739.69;4976809;28;19926;-77
2023/06/06 10:24:02;;;;;;;;;;;;;;;22.80;39.05;96734.91;4976725;28;19928;-77
2023/06/06 10:26:31;;;;;;;;;;;;;;;22.77;38.94;96744.22;4976498;28;19933;-77
2023/06/06 10:29:01;;;;;;;;;;;;;;;22.80;37.93;96733.06;4977195;28;19922;-77
2023/06/06 10:31:31;;;;;;;;;;;;;;;22.83;38.26;96745.06;4976951;28;19977;-77
2023/06/06 10:34:00;;;;;;;;;;;;;;;22.82;37.87;96738.13;4976655;28;20005;-76
2023/06/06 10:36:38;;;;;;;;;;;;;;;22.84;37.63;96746.66;4976483;28;19921;-76
2023/06/06 10:39:17;;;;;;;;;;;;;;;22.91;37.84;96727.81;4976834;28;19964;-77
2023/06/06 10:41:50;;;;;;;;;;;;;;;22.98;38.31;96729.19;4976790;28;19976;-77
2023/06/06 10:44:19;;;;;;;;;;;;;;;23.01;37.49;96734.00;4977092;28;20012;-77
2023/06/06 10:46:48;;;;;;;;;;;;;;;22.96;38.48;96739.28;4976482;28;19926;-76
2023/06/06 10:49:16;;;;;;;;;;;;;;;22.89;38.36;96741.34;4976799;28;19926;-77
2023/06/06 10:51:44;;;;;;;;;;;;;;;22.77;37.62;96754.84;4976979;28;19922;-77
2023/06/06 10:54:18;;;;;;;;;;;;;;;22.71;38.08;96747.09;4976820;28;20307;-76
2023/06/06 10:56:47;;;;;;;;;;;;;;;22.71;37.01;96742.56;4976323;28;19969;-76
2023/06/06 10:59:14;;;;;;;;;;;;;;;22.78;37.83;96740.50;4976412;28;19996;-77
2023/06/06 11:01:42;;;;;;;;;;;;;;;22.87;38.61;96732.84;4976390;28;19969;-77
2023/06/06 11:04:17;;;;;;;;;;;;;;;22.92;37.99;96732.88;4976557;28;19926;-77
2023/06/06 11:06:45;;;;;;;;;;;;;;;22.94;37.98;96733.41;4976766;28;20013;-77
2023/06/06 11:09:22;;;;;;;;;;;;;;;22.97;37.62;96737.41;4991622;28;19922;-77
2023/06/06 11:11:50;;;;;;;;;;;;;;;22.93;37.09;96734.47;4994935;28;20369;-77
2023/06/06 11:14:21;;;;;;;;;;;;;;;22.91;37.89;96739.25;4987455;28;20298;-77
2023/06/06 11:16:52;;;;;;;;;;;;;;;22.96;38.26;96723.31;4978010;28;20043;-77
2023/06/06 11:19:21;;;;;;;;;;;;;;;23.07;38.15;96734.84;4977404;28;19976;-77
2023/06/06 11:21:50;;;;;;;;;;;;;;;23.13;36.85;96730.34;4976762;28;20378;-77
2023/06/06 11:24:19;;;;;;;;;;;;;;;23.04;37.82;96735.34;4976080;28;19926;-77
2023/06/06 11:26:51;;;;;;;;;;;;;;;22.98;38.22;96723.88;4977013;28;19929;-77
2023/06/06 11:29:19;;;;;;;;;;;;;;;22.96;37.57;96726.00;4979655;28;20572;-77
2023/06/06 11:31:48;;;;;;;;;;;;;;;22.97;37.93;96726.78;4977055;28;19926;-77
2023/06/06 11:34:15;;;;;;;;;;;;;;;23.00;37.69;96727.09;4976861;28;19922;-77
2023/06/06 11:36:44;;;;;;;;;;;;;;;23.07;36.89;96723.41;4976536;28;19961;-77
2023/06/06 11:39:12;;;;;;;;;;;;;;;23.12;37.71;96736.75;4976472;28;19980;-77
2023/06/06 11:41:40;;;;;;;;;;;;;;;23.17;37.97;96731.44;4976424;28;19922;-77
2023/06/06 11:44:09;;;;;;;;;;;;;;;23.22;37.82;96734.09;4975570;28;19973;-77
2023/06/06 11:46:43;;;;;;;;;;;;;;;23.30;37.34;96728.28;4975627;28;20009;-77
2023/06/06 11:49:11;;;;;;;;;;;;;;;23.35;37.53;96724.84;4975481;28;19922;-76
2023/06/06 11:51:39;;;;;;;;;;;;;;;23.32;36.78;96731.50;4975603;28;19976;-77
2023/06/06 11:54:13;;;;;;;;;;;;;;;23.26;37.49;96721.88;4975685;28;19957;-77
2023/06/06 11:56:41;;;;;;;;;;;;;;;23.27;38.02;96712.84;4975542;28;19922;-77
2023/06/06 11:59:11;;;;;;;;;;;;;;;23.34;37.37;96718.72;4975409;28;19963;-77
2023/06/06 12:01:47;;;;;;;;;;;;;;;23.38;37.25;96719.81;4975938;28;20390;-77
2023/06/06 12:04:14;;;;;;;;;;;;;;;23.40;37.30;96717.69;4976233;28;19926;-77
2023/06/06 12:06:45;;;;;;;;;;;;;;;23.36;37.11;96721.16;4976315;28;19945;-76
2023/06/06 12:09:13;;;;;;;;;;;;;;;23.31;37.35;96724.59;4975433;28;19922;-77
2023/06/06 12:11:49;;;;;;;;;;;;;;;23.28;37.28;96711.78;4975173;28;19926;-77
2023/06/06 12:14:18;;;;;;;;;;;;;;;23.31;37.91;96719.28;4974904;28;20008;-77
2023/06/06 12:16:45;;;;;;;;;;;;;;;23.37;37.92;96715.53;4975137;28;20022;-77
2023/06/06 12:19:14;;;;;;;;;;;;;;;23.37;37.96;96714.75;4974092;28;19922;-77
2023/06/06 12:21:45;;;;;;;;;;;;;;;23.34;37.59;96708.09;4975132;28;19966;-77
2023/06/06 12:24:19;;;;;;;;;;;;;;;23.31;38.02;96718.44;4977468;28;19954;-77
2023/06/06 12:26:51;;;;;;;;;;;;;;;23.32;37.81;96715.53;4975392;28;19969;-77
2023/06/06 12:29:20;;;;;;;;;;;;;;;23.34;37.68;96718.72;4975474;28;19957;-78
2023/06/06 12:31:50;;;;;;;;;;;;;;;23.38;36.89;96719.81;4975499;28;19965;-77
2023/06/06 12:34:18;;;;;;;;;;;;;;;23.34;37.34;96718.72;4974489;28;19922;-76
2023/06/06 12:36:51;;;;;;;;;;;;;;;23.29;37.22;96713.41;4974534;28;19922;-77
2023/06/06 12:39:19;;;;;;;;;;;;;;;23.26;37.24;96713.91;4974408;28;19926;-77
2023/06/06 12:41:46;;;;;;;;;;;;;;;23.25;35.76;96720.31;4974647;28;19993;-77
2023/06/06 12:44:16;;;;;;;;;;;;;;;23.25;36.92;96717.63;4978611;28;20382;-77
2023/06/06 12:46:45;;;;;;;;;;;;;;;23.27;36.29;96710.19;4975605;28;20493;-77
2023/06/06 12:49:13;;;;;;;;;;;;;;;23.29;36.64;96710.75;4974602;28;20374;-77
2023/06/06 12:51:42;;;;;;;;;;;;;;;23.33;36.95;96703.84;4974564;28;19977;-77
2023/06/06 12:54:10;;;;;;;;;;;;;;;23.40;37.83;96706.25;4974872;28;19922;-77
2023/06/06 12:56:38;;;;;;;;;;;;;;;23.44;37.93;96713.47;4974634;28;19922;-76
2023/06/06 12:59:06;;;;;;;;;;;;;;;23.44;37.79;96708.13;4974494;28;20337;-76
2023/06/06 13:01:34;;;;;;;;;;;;;;;23.41;37.63;96708.63;4975040;28;19945;-77
2023/06/06 13:04:04;;;;;;;;;;;;;;;23.41;38.03;96708.63;4974469;28;19976;-77
2023/06/06 13:06:32;;;;;;;;;;;;;;;23.43;38.74;96717.16;4974460;28;19926;-77
2023/06/06 13:09:00;;;;;;;;;;;;;;;23.48;38.59;96719.03;4974403;28;19922;-77
2023/06/06 13:11:28;;;;;;;;;;;;;;;23.52;38.07;96714.00;4974669;28;20406;-76
2023/06/06 13:13:56;;;;;;;;;;;;;;;23.50;38.94;96710.81;4974810;28;19961;-78
2023/06/06 13:16:25;;;;;;;;;;;;;;;23.52;39.33;96714.00;4974159;28;20356;-77
2023/06/06 13:18:53;;;;;;;;;;;;;;;23.56;39.29;96707.09;4974614;28;20009;-77
2023/06/06 13:21:22;;;;;;;;;;;;;;;23.58;38.54;96712.97;4974142;28;19992;-77
2023/06/06 13:23:50;;;;;;;;;;;;;;;23.56;38.49;96707.88;4974475;28;19980;-77
2023/06/06 13:26:20;;;;;;;;;;;;;;;23.53;38.77;96708.44;4974376;28;19934;-77
2023/06/06 13:28:47;;;;;;;;;;;;;;;23.55;38.58;96702.81;4974446;28;19966;-77
2023/06/06 13:31:15;;;;;;;;;;;;;;;23.56;38.42;96707.88;4973888;28;20390;-77
2023/06/06 13:33:42;;;;;;;;;;;;;;;23.56;38.65;96707.09;4973790;28;20428;-77
2023/06/06 13:36:10;;;;;;;;;;;;;;;23.52;38.58;96704.16;4973884;28;20330;-77
2023/06/06 13:38:39;;;;;;;;;;;;;;;23.46;38.86;96707.84;4974240;28;19922;-77
2023/06/06 13:41:06;;;;;;;;;;;;;;;23.45;39.80;96720.38;4973941;28;20366;-77
2023/06/06 13:43:34;;;;;;;;;;;;;;;23.43;39.74;96711.84;4973564;28;20021;-77
2023/06/06 13:46:01;;;;;;;;;;;;;;;23.36;39.61;96705.19;4973478;28;20012;-77
2023/06/06 13:48:29;;;;;;;;;;;;;;;23.32;39.56;96704.09;4973684;28;20365;-77
2023/06/06 13:50:58;;;;;;;;;;;;;;;23.27;39.70;96707.53;4973657;28;19977;-77
2023/06/06 13:53:25;;;;;;;;;;;;;;;23.27;39.76;96704.88;4973408;28;19922;-77
2023/06/06 13:55:56;;;;;;;;;;;;;;;23.26;38.70;96699.81;4973431;28;19929;-77
2023/06/06 13:58:23;;;;;;;;;;;;;;;23.21;38.84;96703.25;4973452;28;19922;-77
2023/06/06 14:00:52;;;;;;;;;;;;;;;23.18;38.74;96706.44;4973405;28;19936;-77
2023/06/06 14:03:20;;;;;;;;;;;;;;;23.19;38.57;96700.03;4973263;28;19922;-77
2023/06/06 14:05:48;;;;;;;;;;;;;;;23.16;39.05;96716.53;4973403;28;19980;-77